createdAt,value
2023-12-30T00:02:19.872Z,101932.31
2023-12-30T00:04:47.056Z,101935.91
2023-12-30T00:07:13.919Z,101922.94
2023-12-30T00:09:41.489Z,101920.25
2023-12-30T00:12:08.464Z,101915.94
2023-12-30T00:14:35.388Z,101899.06
2023-12-30T00:17:02.237Z,101931.06
2023-12-30T00:19:29.371Z,101931.88
2023-12-30T00:21:56.538Z,101926.00
2023-12-30T00:24:23.588Z,101916.94
2023-12-30T00:26:51.561Z,101914.50
2023-12-30T00:29:18.557Z,101901.19
2023-12-30T00:31:45.456Z,101908.56
2023-12-30T00:34:12.825Z,101920.81
2023-12-30T00:36:44.658Z,101912.22
2023-12-30T00:39:12.188Z,101911.25
2023-12-30T00:41:39.196Z,101914.91
2023-12-30T00:44:06.213Z,101906.16
2023-12-30T00:46:33.056Z,101910.78
2023-12-30T00:49:00.164Z,101901.13
2023-12-30T00:51:27.141Z,101899.16
2023-12-30T00:53:54.071Z,101908.81
2023-12-30T00:56:20.900Z,101898.84
2023-12-30T00:58:47.673Z,101901.38
2023-12-30T01:01:14.590Z,101901.44
2023-12-30T01:03:42.067Z,101893.28
2023-12-30T01:06:09.529Z,101889.78
2023-12-30T01:08:36.866Z,101895.38
2023-12-30T01:11:05.047Z,101877.66
2023-12-30T01:13:32.215Z,101883.50
2023-12-30T01:15:59.135Z,101887.19
2023-12-30T01:18:26.793Z,101889.09
2023-12-30T01:21:00.026Z,101887.78
2023-12-30T01:23:26.855Z,101893.88
2023-12-30T01:25:53.767Z,101889.31
2023-12-30T01:28:20.698Z,101886.88
2023-12-30T01:30:48.509Z,101896.53
2023-12-30T01:33:15.357Z,101900.03
2023-12-30T01:35:42.273Z,101893.94
2023-12-30T01:38:09.033Z,101897.06
2023-12-30T01:40:35.970Z,101901.63
2023-12-30T01:43:04.599Z,101896.34
2023-12-30T01:45:32.093Z,101901.38
2023-12-30T01:47:59.765Z,101904.22
2023-12-30T01:50:27.716Z,101902.78
2023-12-30T01:52:54.794Z,101908.56
2023-12-30T01:55:22.051Z,101900.66
2023-12-30T01:57:49.806Z,101910.53
2023-12-30T02:00:23.166Z,101907.75
2023-12-30T02:02:51.269Z,101908.03
2023-12-30T02:05:19.366Z,101903.63
2023-12-30T02:07:48.047Z,101902.75
2023-12-30T02:10:15.143Z,101910.69
2023-12-30T02:12:42.135Z,101905.44
2023-12-30T02:15:16.415Z,101905.44
2023-12-30T02:17:43.840Z,101892.13
2023-12-30T02:20:12.030Z,101908.81
2023-12-30T02:22:46.784Z,101908.66
2023-12-30T02:25:14.197Z,101905.16
2023-12-30T02:27:45.700Z,101912.31
2023-12-30T02:30:14.363Z,101902.53
2023-12-30T02:32:41.819Z,101912.13
2023-12-30T02:35:09.103Z,101911.59
2023-12-30T02:37:36.038Z,101906.94
2023-12-30T02:40:03.153Z,101910.44
2023-12-30T02:42:30.157Z,101907.03
2023-12-30T02:44:57.954Z,101916.69
2023-12-30T02:47:25.259Z,101911.25
2023-12-30T02:49:52.217Z,101905.44
2023-12-30T02:52:19.323Z,101914.41
2023-12-30T02:54:46.259Z,101912.97
2023-12-30T02:57:13.057Z,101912.06
2023-12-30T02:59:40.248Z,101901.44
2023-12-30T03:02:07.392Z,101897.22
2023-12-30T03:04:34.376Z,101905.09
2023-12-30T03:07:01.403Z,101893.09
2023-12-30T03:09:28.191Z,101898.59
2023-12-30T03:11:55.066Z,101892.59
2023-12-30T03:14:22.013Z,101888.06
2023-12-30T03:16:51.521Z,101881.00
2023-12-30T03:19:18.572Z,101887.00
2023-12-30T03:21:49.458Z,101884.50
2023-12-30T03:24:16.420Z,101881.91
2023-12-30T03:26:44.392Z,101876.00
2023-12-30T03:29:11.282Z,101860.88
2023-12-30T03:31:38.068Z,101842.16
2023-12-30T03:34:05.477Z,101854.66
2023-12-30T03:36:32.353Z,101854.00
2023-12-30T03:39:00.119Z,101863.31
2023-12-30T03:41:26.903Z,101834.13
2023-12-30T03:43:54.150Z,101844.00
2023-12-30T03:46:21.287Z,101839.66
2023-12-30T03:48:48.334Z,101837.94
2023-12-30T03:51:15.268Z,101849.34
2023-12-30T03:53:42.371Z,101856.50
2023-12-30T03:56:09.224Z,101847.81
2023-12-30T03:58:36.502Z,101853.19
2023-12-30T04:01:04.379Z,101855.69
2023-12-30T04:03:31.285Z,101858.50
2023-12-30T04:05:58.075Z,101852.66
2023-12-30T04:08:25.005Z,101857.88
2023-12-30T04:10:52.258Z,101837.44
2023-12-30T04:13:19.338Z,101857.22
2023-12-30T04:15:46.614Z,101864.50
2023-12-30T04:18:13.968Z,101861.97
2023-12-30T04:20:40.933Z,101849.00
2023-12-30T04:23:07.815Z,101859.59
2023-12-30T04:25:35.008Z,101853.66
2023-12-30T04:28:01.922Z,101851.97
2023-12-30T04:30:28.804Z,101845.31
2023-12-30T04:32:56.322Z,101847.75
2023-12-30T04:35:24.034Z,101841.75
2023-12-30T04:37:50.872Z,101841.06
2023-12-30T04:40:17.754Z,101839.50
2023-12-30T04:42:44.560Z,101847.69
2023-12-30T04:45:14.199Z,101839.84
2023-12-30T04:47:41.898Z,101840.94
2023-12-30T04:50:09.981Z,101840.19
2023-12-30T04:52:37.026Z,101835.00
2023-12-30T04:55:04.431Z,101821.13
2023-12-30T04:57:31.794Z,101828.53
2023-12-30T04:59:59.156Z,101820.50
2023-12-30T05:02:26.303Z,101815.47
2023-12-30T05:04:53.312Z,101818.97
2023-12-30T05:07:20.048Z,101809.53
2023-12-30T05:09:47.229Z,101806.22
2023-12-30T05:12:14.508Z,101813.47
2023-12-30T05:14:41.308Z,101805.50
2023-12-30T05:17:08.102Z,101802.03
2023-12-30T05:19:35.563Z,101800.25
2023-12-30T05:22:02.549Z,101795.00
2023-12-30T05:24:29.608Z,101799.56
2023-12-30T05:26:56.377Z,101797.06
2023-12-30T05:29:24.079Z,101794.38
2023-12-30T05:31:51.198Z,101795.44
2023-12-30T05:34:20.267Z,101796.31
2023-12-30T05:36:47.191Z,101809.44
2023-12-30T05:39:15.921Z,101799.03
2023-12-30T05:41:42.902Z,101806.91
2023-12-30T05:44:09.809Z,101783.41
2023-12-30T05:46:36.802Z,101786.13
2023-12-30T05:49:04.100Z,101781.06
2023-12-30T05:51:31.234Z,101791.69
2023-12-30T05:53:58.002Z,101786.69
2023-12-30T05:56:26.054Z,101789.19
2023-12-30T05:58:54.089Z,101781.41
2023-12-30T06:01:21.407Z,101790.13
2023-12-30T06:03:48.501Z,101768.16
2023-12-30T06:06:15.857Z,101793.69
2023-12-30T06:08:44.080Z,101780.53
2023-12-30T06:11:12.274Z,101764.59
2023-12-30T06:13:42.038Z,101798.41
2023-12-30T06:16:15.578Z,101795.69
2023-12-30T06:18:42.438Z,101807.19
2023-12-30T06:21:09.341Z,101799.44
2023-12-30T06:23:36.223Z,101785.47
2023-12-30T06:26:03.188Z,101796.38
2023-12-30T06:28:30.366Z,101778.66
2023-12-30T06:30:57.504Z,101786.06
2023-12-30T06:33:25.448Z,101780.69
2023-12-30T06:35:52.434Z,101792.28
2023-12-30T06:38:19.379Z,101780.69
2023-12-30T06:40:49.002Z,101783.59
2023-12-30T06:43:16.253Z,101757.91
2023-12-30T06:45:43.007Z,101782.03
2023-12-30T06:48:10.371Z,101784.69
2023-12-30T06:50:37.189Z,101789.97
2023-12-30T06:53:04.382Z,101788.31
2023-12-30T06:55:38.210Z,101782.44
2023-12-30T06:58:09.642Z,101780.59
2023-12-30T07:00:37.057Z,101784.22
2023-12-30T07:03:04.859Z,101784.56
2023-12-30T07:05:37.986Z,101779.50
2023-12-30T07:08:08.922Z,101741.28
2023-12-30T07:10:37.250Z,101784.97
2023-12-30T07:13:04.598Z,101788.38
2023-12-30T07:15:31.563Z,101788.72
2023-12-30T07:17:59.088Z,101772.34
2023-12-30T07:20:27.343Z,101759.97
2023-12-30T07:22:54.594Z,101777.69
2023-12-30T07:25:21.335Z,101767.88
2023-12-30T07:27:48.559Z,101780.31
2023-12-30T07:30:16.527Z,101772.28
2023-12-30T07:32:43.874Z,101786.47
2023-12-30T07:35:11.574Z,101780.16
2023-12-30T07:37:39.217Z,101756.56
2023-12-30T07:40:10.294Z,101776.38
2023-12-30T07:42:40.340Z,101781.66
2023-12-30T07:45:08.343Z,101767.53
2023-12-30T07:47:35.547Z,101779.31
2023-12-30T07:50:02.574Z,101749.13
2023-12-30T07:52:29.474Z,101751.81
2023-12-30T07:54:56.337Z,101789.19
2023-12-30T07:57:23.924Z,101775.19
2023-12-30T07:59:53.386Z,101752.13
2023-12-30T08:02:20.484Z,101778.19
2023-12-30T08:04:47.290Z,101762.56
2023-12-30T08:07:15.840Z,101776.38
2023-12-30T08:09:45.108Z,101763.72
2023-12-30T08:12:12.904Z,101785.34
2023-12-30T08:14:39.856Z,101782.81
2023-12-30T08:17:06.757Z,101780.22
2023-12-30T08:19:33.622Z,101773.16
2023-12-30T08:22:00.771Z,101778.59
2023-12-30T08:24:29.599Z,101769.91
2023-12-30T08:26:57.574Z,101776.41
2023-12-30T08:29:24.356Z,101778.63
2023-12-30T08:31:51.279Z,101758.19
2023-12-30T08:34:18.731Z,101771.78
2023-12-30T08:36:46.141Z,101775.13
2023-12-30T08:39:13.513Z,101767.66
2023-12-30T08:41:41.780Z,101783.47
2023-12-30T08:44:12.532Z,101779.88
2023-12-30T08:46:39.413Z,101786.91
2023-12-30T08:49:09.825Z,101763.16
2023-12-30T08:51:37.850Z,101774.13
2023-12-30T08:54:04.830Z,101777.91
2023-12-30T08:56:33.691Z,101757.06
2023-12-30T08:59:01.707Z,101773.13
2023-12-30T09:01:28.598Z,101786.50
2023-12-30T09:03:56.141Z,101750.31
2023-12-30T09:06:23.215Z,101766.53
2023-12-30T09:08:50.065Z,101784.22
2023-12-30T09:11:21.294Z,101792.13
2023-12-30T09:13:50.036Z,101760.28
2023-12-30T09:16:17.149Z,101777.56
2023-12-30T09:18:44.348Z,101770.69
2023-12-30T09:21:11.365Z,101774.25
2023-12-30T09:23:38.854Z,101764.75
2023-12-30T09:26:06.315Z,101763.16
2023-12-30T09:28:34.692Z,101758.00
2023-12-30T09:31:02.521Z,101749.47
2023-12-30T09:33:29.710Z,101774.16
2023-12-30T09:35:57.143Z,101772.44
2023-12-30T09:38:25.966Z,101766.03
2023-12-30T09:40:55.883Z,101762.34
2023-12-30T09:43:28.013Z,101765.16
2023-12-30T09:45:57.738Z,101760.06
2023-12-30T09:48:27.034Z,101745.94
2023-12-30T09:50:55.515Z,101769.03
2023-12-30T09:53:24.430Z,101773.44
2023-12-30T09:55:52.521Z,101771.09
2023-12-30T09:58:20.567Z,101754.13
2023-12-30T10:00:51.241Z,101774.25
2023-12-30T10:03:23.060Z,101774.31
2023-12-30T10:05:53.657Z,101761.25
2023-12-30T10:08:22.024Z,101749.00
2023-12-30T10:10:50.876Z,101761.69
2023-12-30T10:13:23.135Z,101771.44
2023-12-30T10:15:54.689Z,101755.59
2023-12-30T10:18:47.714Z,101767.53
2023-12-30T10:21:17.927Z,101768.53
2023-12-30T10:23:44.973Z,101767.94
2023-12-30T10:26:18.271Z,101768.28
2023-12-30T10:28:45.789Z,101759.66
2023-12-30T10:31:21.875Z,101744.91
2023-12-30T10:33:49.800Z,101741.75
2023-12-30T10:36:28.033Z,101750.59
2023-12-30T10:39:07.395Z,101741.09
2023-12-30T10:41:34.167Z,101743.94
2023-12-30T10:44:00.926Z,101733.72
2023-12-30T10:46:28.743Z,101740.69
2023-12-30T10:49:05.382Z,101700.25
2023-12-30T10:51:35.438Z,101724.94
2023-12-30T10:54:09.095Z,101724.06
2023-12-30T10:56:43.327Z,101727.56
2023-12-30T10:59:13.502Z,101717.41
2023-12-30T11:01:41.812Z,101711.16
2023-12-30T11:04:13.494Z,101698.00
2023-12-30T11:06:54.502Z,101676.91
2023-12-30T11:09:28.720Z,101681.59
2023-12-30T11:12:01.180Z,101686.06
2023-12-30T11:14:28.144Z,101677.38
2023-12-30T11:16:57.004Z,101682.00
2023-12-30T11:19:32.542Z,101675.88
2023-12-30T11:22:06.032Z,101664.72
2023-12-30T11:24:32.961Z,101664.91
2023-12-30T11:27:00.075Z,101661.56
2023-12-30T11:29:29.303Z,101644.94
2023-12-30T11:31:58.156Z,101649.50
2023-12-30T11:34:26.019Z,101621.41
2023-12-30T11:36:59.110Z,101640.91
2023-12-30T11:39:33.307Z,101623.41
2023-12-30T11:42:01.475Z,101629.63
2023-12-30T11:44:29.148Z,101613.97
2023-12-30T11:46:58.692Z,101608.97
2023-12-30T11:49:29.594Z,101615.16
2023-12-30T11:52:06.417Z,101598.53
2023-12-30T11:54:34.230Z,101584.56
2023-12-30T11:57:01.404Z,101593.69
2023-12-30T11:59:28.142Z,101592.09
2023-12-30T12:02:07.770Z,101588.69
2023-12-30T12:04:37.186Z,101569.38
2023-12-30T12:07:05.295Z,101561.91
2023-12-30T12:09:32.019Z,101564.47
2023-12-30T12:11:58.834Z,101552.34
2023-12-30T12:14:26.324Z,101547.22
2023-12-30T12:16:53.102Z,101549.03
2023-12-30T12:19:20.082Z,101537.78
2023-12-30T12:21:47.093Z,101513.97
2023-12-30T12:24:13.871Z,101514.13
2023-12-30T12:26:41.206Z,101529.22
2023-12-30T12:29:08.034Z,101512.72
2023-12-30T12:31:34.804Z,101525.84
2023-12-30T12:34:20.264Z,101513.59
2023-12-30T12:36:47.391Z,101508.56
2023-12-30T12:39:15.035Z,101487.28
2023-12-30T12:41:41.921Z,101476.81
2023-12-30T12:44:08.782Z,101475.81
2023-12-30T12:46:38.503Z,101471.59
2023-12-30T12:49:05.333Z,101480.34
2023-12-30T12:51:33.546Z,101474.44
2023-12-30T12:54:00.332Z,101463.00
2023-12-30T12:56:27.191Z,101462.09
2023-12-30T12:58:54.227Z,101473.81
2023-12-30T13:01:22.035Z,101466.00
2023-12-30T13:03:49.164Z,101444.22
2023-12-30T13:06:17.276Z,101445.09
2023-12-30T13:08:45.286Z,101416.94
2023-12-30T13:11:14.533Z,101436.34
2023-12-30T13:13:41.937Z,101438.22
2023-12-30T13:16:10.456Z,101432.28
2023-12-30T13:18:39.338Z,101408.47
2023-12-30T13:21:07.513Z,101423.50
2023-12-30T13:23:35.037Z,101420.09
2023-12-30T13:26:04.620Z,101417.41
2023-12-30T13:28:32.255Z,101407.00
2023-12-30T13:31:01.596Z,101397.16
2023-12-30T13:33:36.798Z,101395.31
2023-12-30T13:36:07.574Z,101383.97
2023-12-30T13:38:40.668Z,101398.97
2023-12-30T13:41:07.415Z,101380.38
2023-12-30T13:43:34.176Z,101387.47
2023-12-30T13:46:21.011Z,101396.13
2023-12-30T13:49:19.720Z,101381.13
2023-12-30T13:51:51.775Z,101384.72
2023-12-30T13:54:20.882Z,101389.97
2023-12-30T13:56:51.428Z,101375.00
2023-12-30T13:59:20.129Z,101365.41
2023-12-30T14:01:47.263Z,101354.97
2023-12-30T14:04:17.657Z,101364.50
2023-12-30T14:06:45.184Z,101366.19
2023-12-30T14:09:51.039Z,101366.19
2023-12-30T14:12:19.502Z,101362.72
2023-12-30T14:14:56.626Z,101363.59
2023-12-30T14:17:31.117Z,101353.06
2023-12-30T14:20:00.073Z,101342.59
2023-12-30T14:22:27.813Z,101341.66
2023-12-30T14:24:54.614Z,101346.84
2023-12-30T14:27:22.211Z,101347.00
2023-12-30T14:29:52.707Z,101332.03
2023-12-30T14:32:20.246Z,101339.06
2023-12-30T14:34:47.190Z,101327.47
2023-12-30T14:37:14.128Z,101342.28
2023-12-30T14:39:40.892Z,101341.44
2023-12-30T14:42:07.739Z,101339.69
2023-12-30T14:44:34.800Z,101338.81
2023-12-30T14:47:02.290Z,101334.41
2023-12-30T14:49:29.863Z,101329.13
2023-12-30T14:51:56.794Z,101328.31
2023-12-30T14:54:23.790Z,101326.66
2023-12-30T14:56:50.920Z,101317.66
2023-12-30T14:59:17.844Z,101324.88
2023-12-30T15:01:44.968Z,101318.56
2023-12-30T15:04:12.189Z,101309.81
2023-12-30T15:06:39.243Z,101319.50
2023-12-30T15:09:09.984Z,101312.44
2023-12-30T15:11:37.304Z,101294.94
2023-12-30T15:14:05.524Z,101288.75
2023-12-30T15:16:32.497Z,101280.84
2023-12-30T15:18:59.509Z,101286.16
2023-12-30T15:21:26.447Z,101277.31
2023-12-30T15:23:53.955Z,101276.47
2023-12-30T15:26:23.392Z,101266.78
2023-12-30T15:28:50.215Z,101262.38
2023-12-30T15:31:18.022Z,101256.25
2023-12-30T15:33:45.004Z,101231.63
2023-12-30T15:36:15.997Z,101244.88
2023-12-30T15:38:42.874Z,101248.22
2023-12-30T15:41:09.731Z,101252.44
2023-12-30T15:43:36.546Z,101255.03
2023-12-30T15:46:04.797Z,101229.44
2023-12-30T15:48:31.806Z,101254.09
2023-12-30T15:50:58.971Z,101240.78
2023-12-30T15:53:25.753Z,101242.34
2023-12-30T15:55:52.701Z,101247.41
2023-12-30T15:58:20.619Z,101247.22
2023-12-30T16:00:47.497Z,101243.56
2023-12-30T16:03:15.471Z,101241.56
2023-12-30T16:05:42.916Z,101243.16
2023-12-30T16:08:11.046Z,101216.72
2023-12-30T16:10:38.134Z,101227.19
2023-12-30T16:13:05.290Z,101230.53
2023-12-30T16:15:35.368Z,101181.03
2023-12-30T16:18:04.567Z,101221.50
2023-12-30T16:20:31.350Z,101226.66
2023-12-30T16:22:58.359Z,101236.88
2023-12-30T16:25:25.467Z,101226.06
2023-12-30T16:27:53.128Z,101224.25
2023-12-30T16:30:20.046Z,101217.13
2023-12-30T16:32:47.129Z,101211.63
2023-12-30T16:35:14.060Z,101213.28
2023-12-30T16:37:41.008Z,101202.59
2023-12-30T16:40:09.862Z,101215.53
2023-12-30T16:42:37.121Z,101221.28
2023-12-30T16:45:04.112Z,101201.75
2023-12-30T16:47:31.162Z,101214.91
2023-12-30T16:50:00.313Z,101215.50
2023-12-30T16:52:27.181Z,101218.00
2023-12-30T16:54:53.936Z,101211.66
2023-12-30T16:57:20.835Z,101222.91
2023-12-30T16:59:48.853Z,101205.16
2023-12-30T17:02:16.210Z,101208.66
2023-12-30T17:04:43.259Z,101208.44
2023-12-30T17:07:10.075Z,101204.09
2023-12-30T17:09:37.075Z,101193.53
2023-12-30T17:12:04.077Z,101202.31
2023-12-30T17:14:31.841Z,101188.91
2023-12-30T17:16:59.725Z,101191.53
2023-12-30T17:19:26.982Z,101194.00
2023-12-30T17:21:53.849Z,101185.75
2023-12-30T17:24:20.523Z,101202.38
2023-12-30T17:26:47.455Z,101189.81
2023-12-30T17:29:14.198Z,101200.19
2023-12-30T17:31:40.958Z,101200.09
2023-12-30T17:34:07.751Z,101192.81
2023-12-30T17:36:34.477Z,101185.56
2023-12-30T17:39:01.562Z,101164.50
2023-12-30T17:41:28.374Z,101172.38
2023-12-30T17:43:55.517Z,101153.66
2023-12-30T17:46:23.229Z,101181.75
2023-12-30T17:48:50.034Z,101144.44
2023-12-30T17:51:16.940Z,101178.72
2023-12-30T17:53:43.754Z,101174.16
2023-12-30T17:56:10.782Z,101157.38
2023-12-30T17:58:37.595Z,101170.56
2023-12-30T18:01:04.579Z,101172.88
2023-12-30T18:03:31.478Z,101159.59
2023-12-30T18:05:58.273Z,101159.47
2023-12-30T18:08:25.115Z,101149.44
2023-12-30T18:10:52.197Z,101150.13
2023-12-30T18:13:20.675Z,101136.72
2023-12-30T18:15:47.439Z,101114.59
2023-12-30T18:18:14.658Z,101114.78
2023-12-30T18:20:41.611Z,101104.25
2023-12-30T18:23:08.569Z,101097.22
2023-12-30T18:25:35.940Z,101096.91
2023-12-30T18:28:03.143Z,101084.56
2023-12-30T18:30:30.204Z,101083.63
2023-12-30T18:32:57.068Z,101083.44
2023-12-30T18:35:24.360Z,101082.47
2023-12-30T18:37:51.316Z,101070.19
2023-12-30T18:40:19.825Z,101072.72
2023-12-30T18:42:46.682Z,101067.22
2023-12-30T18:45:13.702Z,101066.47
2023-12-30T18:47:40.624Z,101068.91
2023-12-30T18:50:07.885Z,101062.41
2023-12-30T18:52:34.867Z,101065.16
2023-12-30T18:55:01.769Z,101080.22
2023-12-30T18:57:28.509Z,101076.88
2023-12-30T18:59:56.077Z,101060.25
2023-12-30T19:02:23.281Z,101068.19
2023-12-30T19:04:50.162Z,101071.66
2023-12-30T19:07:17.135Z,101065.50
2023-12-30T19:09:47.743Z,101070.69
2023-12-30T19:12:14.877Z,101065.53
2023-12-30T19:14:41.622Z,101062.19
2023-12-30T19:17:09.994Z,101055.09
2023-12-30T19:19:37.646Z,101047.88
2023-12-30T19:22:07.783Z,101052.50
2023-12-30T19:24:37.847Z,101066.25
2023-12-30T19:27:05.168Z,101066.41
2023-12-30T19:29:31.958Z,101070.00
2023-12-30T19:31:58.664Z,101055.09
2023-12-30T19:34:28.042Z,101031.53
2023-12-30T19:36:55.298Z,101018.00
2023-12-30T19:39:21.992Z,101018.03
2023-12-30T19:41:51.603Z,101014.66
2023-12-30T19:44:18.560Z,101030.16
2023-12-30T19:46:45.666Z,101018.56
2023-12-30T19:49:14.336Z,101019.38
2023-12-30T19:51:41.169Z,101035.16
2023-12-30T19:54:08.093Z,101045.56
2023-12-30T19:56:36.549Z,101036.88
2023-12-30T19:59:03.930Z,101043.97
2023-12-30T20:01:33.925Z,101035.97
2023-12-30T20:04:03.472Z,101039.47
2023-12-30T20:06:30.346Z,101008.56
2023-12-30T20:08:57.178Z,101002.03
2023-12-30T20:11:28.179Z,100956.97
2023-12-30T20:13:55.481Z,100988.06
2023-12-30T20:16:22.239Z,101013.47
2023-12-30T20:18:49.056Z,100988.00
2023-12-30T20:21:15.751Z,100985.28
2023-12-30T20:23:42.615Z,100945.00
2023-12-30T20:26:09.565Z,100997.00
2023-12-30T20:28:36.602Z,100989.19
2023-12-30T20:31:05.614Z,100973.06
2023-12-30T20:33:32.841Z,100969.69
2023-12-30T20:35:59.677Z,100966.28
2023-12-30T20:38:26.861Z,100964.38
2023-12-30T20:40:53.791Z,100910.75
2023-12-30T20:43:20.729Z,100951.44
2023-12-30T20:45:48.831Z,100946.19
2023-12-30T20:48:17.201Z,100941.06
2023-12-30T20:50:44.047Z,100942.66
2023-12-30T20:53:12.174Z,100939.22
2023-12-30T20:55:40.127Z,100941.75
2023-12-30T20:58:07.598Z,100926.88
2023-12-30T21:00:34.544Z,100918.31
2023-12-30T21:03:01.998Z,100909.31
2023-12-30T21:05:29.079Z,100927.69
2023-12-30T21:07:55.798Z,100917.94
2023-12-30T21:10:22.620Z,100903.00
2023-12-30T21:12:49.318Z,100888.53
2023-12-30T21:15:16.212Z,100885.00
2023-12-30T21:17:42.986Z,100859.38
2023-12-30T21:20:11.315Z,100866.50
2023-12-30T21:22:38.705Z,100863.91
2023-12-30T21:25:15.479Z,100846.34
2023-12-30T21:27:46.334Z,100837.66
2023-12-30T21:30:14.120Z,100799.09
2023-12-30T21:32:40.994Z,100810.44
2023-12-30T21:35:08.986Z,100811.63
2023-12-30T21:37:41.923Z,100812.50
2023-12-30T21:40:15.410Z,100792.19
2023-12-30T21:42:42.273Z,100792.59
2023-12-30T21:45:10.639Z,100794.34
2023-12-30T21:47:37.559Z,100796.09
2023-12-30T21:50:05.254Z,100787.50
2023-12-30T21:52:34.314Z,100805.19
2023-12-30T21:55:02.532Z,100790.19
2023-12-30T21:57:29.230Z,100788.47
2023-12-30T21:59:56.109Z,100783.59
2023-12-30T22:02:22.873Z,100788.88
2023-12-30T22:04:50.276Z,100780.94
2023-12-30T22:07:17.181Z,100761.63
2023-12-30T22:09:44.247Z,100775.94
2023-12-30T22:12:11.078Z,100775.94
2023-12-30T22:14:37.840Z,100763.91
2023-12-30T22:17:05.969Z,100762.06
2023-12-30T22:19:34.156Z,100766.44
2023-12-30T22:22:00.993Z,100753.13
2023-12-30T22:24:27.724Z,100762.97
2023-12-30T22:26:54.559Z,100758.59
2023-12-30T22:29:21.252Z,100751.53
2023-12-30T22:31:48.173Z,100742.78
2023-12-30T22:34:15.010Z,100740.19
2023-12-30T22:36:41.863Z,100739.47
2023-12-30T22:39:08.678Z,100733.41
2023-12-30T22:41:38.802Z,100687.63
2023-12-30T22:44:05.802Z,100715.88
2023-12-30T22:46:32.719Z,100709.84
2023-12-30T22:48:59.545Z,100705.69
2023-12-30T22:51:26.420Z,100704.03
2023-12-30T22:53:53.223Z,100690.16
2023-12-30T22:56:20.163Z,100677.03
2023-12-30T22:58:46.996Z,100677.78
2023-12-30T23:01:18.174Z,100688.31
2023-12-30T23:03:45.657Z,100685.16
2023-12-30T23:06:12.693Z,100680.00
2023-12-30T23:08:39.570Z,100661.69
2023-12-30T23:11:06.521Z,100670.59
2023-12-30T23:13:33.761Z,100670.84
2023-12-30T23:16:01.743Z,100677.88
2023-12-30T23:18:28.742Z,100657.81
2023-12-30T23:20:55.868Z,100654.38
2023-12-30T23:23:22.773Z,100656.31
2023-12-30T23:25:49.810Z,100647.63
2023-12-30T23:28:16.738Z,100632.09
2023-12-30T23:30:44.025Z,100631.50
2023-12-30T23:33:11.254Z,100625.44
2023-12-30T23:35:38.063Z,100621.84
2023-12-30T23:38:05.178Z,100620.13
2023-12-30T23:40:32.044Z,100630.94
2023-12-30T23:42:59.197Z,100621.47
2023-12-30T23:45:25.941Z,100619.69
2023-12-30T23:47:53.172Z,100618.13
2023-12-30T23:50:20.126Z,100626.69
2023-12-30T23:52:47.554Z,100615.38
2023-12-30T23:55:14.539Z,100594.56
2023-12-30T23:57:41.405Z,100586.72
